createdAt,value
2023-05-14T00:01:36.610Z,15.21
2023-05-14T00:04:04.271Z,15.21
2023-05-14T00:06:32.066Z,15.21
2023-05-14T00:08:59.496Z,15.18
2023-05-14T00:11:26.872Z,15.14
2023-05-14T00:13:54.382Z,15.14
2023-05-14T00:16:21.771Z,15.11
2023-05-14T00:18:49.539Z,15.10
2023-05-14T00:21:17.365Z,15.07
2023-05-14T00:23:44.870Z,15.05
2023-05-14T00:26:12.303Z,15.03
2023-05-14T00:28:40.595Z,15.01
2023-05-14T00:31:08.507Z,14.97
2023-05-14T00:33:36.316Z,14.94
2023-05-14T00:36:04.224Z,14.91
2023-05-14T00:38:32.153Z,14.89
2023-05-14T00:40:59.514Z,14.89
2023-05-14T00:43:27.005Z,14.89
2023-05-14T00:45:54.878Z,14.89
2023-05-14T00:48:22.718Z,14.89
2023-05-14T00:50:50.171Z,14.89
2023-05-14T00:53:20.908Z,14.90
2023-05-14T00:55:49.274Z,14.92
2023-05-14T00:58:16.852Z,14.93
2023-05-14T01:00:44.337Z,14.95
2023-05-14T01:03:11.983Z,14.97
2023-05-14T01:05:46.015Z,14.99
2023-05-14T01:08:17.276Z,15.00
2023-05-14T01:10:49.372Z,15.01
2023-05-14T01:13:29.008Z,15.01
2023-05-14T01:15:57.829Z,14.98
2023-05-14T01:18:25.535Z,14.97
2023-05-14T01:20:53.837Z,14.98
2023-05-14T01:23:21.375Z,14.96
2023-05-14T01:25:49.032Z,14.95
2023-05-14T01:28:20.553Z,14.93
2023-05-14T01:30:58.283Z,14.92
2023-05-14T01:33:26.384Z,14.89
2023-05-14T01:35:54.667Z,14.89
2023-05-14T01:38:22.387Z,14.88
2023-05-14T01:40:51.124Z,14.87
2023-05-14T01:43:18.825Z,14.85
2023-05-14T01:45:46.405Z,14.85
2023-05-14T01:48:13.916Z,14.85
2023-05-14T01:50:41.467Z,14.84
2023-05-14T01:53:08.826Z,14.82
2023-05-14T01:55:36.633Z,14.79
2023-05-14T01:58:04.680Z,14.77
2023-05-14T02:00:33.294Z,14.76
2023-05-14T02:03:00.779Z,14.75
2023-05-14T02:05:28.515Z,14.76
2023-05-14T02:07:56.784Z,14.74
2023-05-14T02:10:24.442Z,14.73
2023-05-14T02:12:52.330Z,14.70
2023-05-14T02:15:20.048Z,14.69
2023-05-14T02:17:47.818Z,14.69
2023-05-14T02:20:15.805Z,14.66
2023-05-14T02:22:46.147Z,14.63
2023-05-14T02:25:13.622Z,14.61
2023-05-14T02:27:41.402Z,14.61
2023-05-14T02:30:09.813Z,14.59
2023-05-14T02:32:38.818Z,14.58
2023-05-14T02:35:06.990Z,14.55
2023-05-14T02:37:34.950Z,14.55
2023-05-14T02:40:02.474Z,14.57
2023-05-14T02:42:30.344Z,14.58
2023-05-14T02:44:57.854Z,14.59
2023-05-14T02:47:25.357Z,14.58
2023-05-14T02:49:53.107Z,14.58
2023-05-14T02:52:21.362Z,14.57
2023-05-14T02:54:49.179Z,14.57
2023-05-14T02:57:16.893Z,14.58
2023-05-14T02:59:44.486Z,14.60
2023-05-14T03:02:12.382Z,14.63
2023-05-14T03:04:40.449Z,14.63
2023-05-14T03:07:07.857Z,14.63
2023-05-14T03:09:38.104Z,14.65
2023-05-14T03:12:07.815Z,14.68
2023-05-14T03:14:35.911Z,14.68
2023-05-14T03:17:04.135Z,14.68
2023-05-14T03:19:32.565Z,14.70
2023-05-14T03:22:00.234Z,14.76
2023-05-14T03:24:27.814Z,14.78
2023-05-14T03:26:55.983Z,14.80
2023-05-14T03:29:23.505Z,14.82
2023-05-14T03:31:51.125Z,14.86
2023-05-14T03:34:18.641Z,14.88
2023-05-14T03:36:46.300Z,14.91
2023-05-14T03:39:19.683Z,14.95
2023-05-14T03:41:47.861Z,14.99
2023-05-14T03:44:15.712Z,15.04
2023-05-14T03:46:43.229Z,15.08
2023-05-14T03:49:10.962Z,15.13
2023-05-14T03:51:38.582Z,15.17
2023-05-14T03:54:06.890Z,15.21
2023-05-14T03:56:35.763Z,15.26
2023-05-14T03:59:03.791Z,15.31
2023-05-14T04:01:33.448Z,15.36
2023-05-14T04:04:00.935Z,15.40
2023-05-14T04:06:28.464Z,15.45
2023-05-14T04:08:55.812Z,15.49
2023-05-14T04:11:23.307Z,15.55
2023-05-14T04:13:50.976Z,15.59
2023-05-14T04:16:18.426Z,15.63
2023-05-14T04:18:46.875Z,15.68
2023-05-14T04:21:15.613Z,15.72
2023-05-14T04:23:43.013Z,15.77
2023-05-14T04:26:10.364Z,15.81
2023-05-14T04:28:37.716Z,15.87
2023-05-14T04:31:05.614Z,15.95
2023-05-14T04:33:33.192Z,16.01
2023-05-14T04:36:01.120Z,16.11
2023-05-14T04:38:32.120Z,16.18
2023-05-14T04:40:59.488Z,16.27
2023-05-14T04:43:26.915Z,16.35
2023-05-14T04:45:57.407Z,16.46
2023-05-14T04:48:24.920Z,16.56
2023-05-14T04:51:07.912Z,16.67
2023-05-14T04:53:36.195Z,16.78
2023-05-14T04:56:03.818Z,16.90
2023-05-14T04:58:34.611Z,17.01
2023-05-14T05:01:05.143Z,17.11
2023-05-14T05:03:32.676Z,17.19
2023-05-14T05:06:00.455Z,17.25
2023-05-14T05:08:28.754Z,17.33
2023-05-14T05:10:59.180Z,17.41
2023-05-14T05:13:26.910Z,17.48
2023-05-14T05:15:54.366Z,17.55
2023-05-14T05:18:22.278Z,17.63
2023-05-14T05:20:50.418Z,17.70
2023-05-14T05:23:19.214Z,17.78
2023-05-14T05:25:46.712Z,17.83
2023-05-14T05:28:14.626Z,17.90
2023-05-14T05:30:42.301Z,17.95
2023-05-14T05:33:09.940Z,18.00
2023-05-14T05:35:37.881Z,18.05
2023-05-14T05:38:05.873Z,18.13
2023-05-14T05:40:34.048Z,18.18
2023-05-14T05:43:01.504Z,18.25
2023-05-14T05:45:28.956Z,18.29
2023-05-14T05:47:56.516Z,18.32
2023-05-14T05:50:24.762Z,18.39
2023-05-14T05:52:53.001Z,18.44
2023-05-14T05:55:20.640Z,18.51
2023-05-14T05:57:48.227Z,18.59
2023-05-14T06:00:16.973Z,18.66
2023-05-14T06:02:44.733Z,18.71
2023-05-14T06:05:12.725Z,18.77
2023-05-14T06:07:40.592Z,18.85
2023-05-14T06:10:08.459Z,18.90
2023-05-14T06:12:36.141Z,18.94
2023-05-14T06:15:03.726Z,19.04
2023-05-14T06:17:31.925Z,19.10
2023-05-14T06:19:59.508Z,19.14
2023-05-14T06:22:27.144Z,19.19
2023-05-14T06:24:54.657Z,19.23
2023-05-14T06:27:22.090Z,19.29
2023-05-14T06:29:50.295Z,19.34
2023-05-14T06:32:17.779Z,19.42
2023-05-14T06:34:46.022Z,19.50
2023-05-14T06:37:13.479Z,19.56
2023-05-14T06:39:44.180Z,19.61
2023-05-14T06:42:11.776Z,19.64
2023-05-14T06:44:39.520Z,19.72
2023-05-14T06:47:08.551Z,19.79
2023-05-14T06:49:36.575Z,19.86
2023-05-14T06:52:04.078Z,19.94
2023-05-14T06:54:31.541Z,19.99
2023-05-14T06:56:58.940Z,20.04
2023-05-14T06:59:26.482Z,20.10
2023-05-14T07:01:53.951Z,20.17
2023-05-14T07:04:21.330Z,20.22
2023-05-14T07:06:48.785Z,20.26
2023-05-14T07:09:16.177Z,20.30
2023-05-14T07:11:43.658Z,20.37
2023-05-14T07:14:11.138Z,20.45
2023-05-14T07:16:38.841Z,20.56
2023-05-14T07:19:06.311Z,20.66
2023-05-14T07:21:34.496Z,20.76
2023-05-14T07:24:02.186Z,20.85
2023-05-14T07:26:30.504Z,20.94
2023-05-14T07:28:57.892Z,21.05
2023-05-14T07:31:25.431Z,21.09
2023-05-14T07:33:53.104Z,21.16
2023-05-14T07:36:20.582Z,21.27
2023-05-14T07:38:48.058Z,21.34
2023-05-14T07:41:15.517Z,21.44
2023-05-14T07:43:42.836Z,21.52
2023-05-14T07:46:10.366Z,21.61
2023-05-14T07:48:37.763Z,21.70
2023-05-14T07:51:05.183Z,21.80
2023-05-14T07:53:32.831Z,21.87
2023-05-14T07:56:00.282Z,21.96
2023-05-14T07:58:28.902Z,22.01
2023-05-14T08:00:57.636Z,22.03
2023-05-14T08:03:25.335Z,22.18
2023-05-14T08:05:52.812Z,22.33
2023-05-14T08:08:20.197Z,22.45
2023-05-14T08:10:47.623Z,22.54
2023-05-14T08:13:15.109Z,22.61
2023-05-14T08:15:42.624Z,22.72
2023-05-14T08:18:10.184Z,22.79
2023-05-14T08:20:38.536Z,22.88
2023-05-14T08:23:07.405Z,22.92
2023-05-14T08:25:34.947Z,22.91
2023-05-14T08:28:02.394Z,23.00
2023-05-14T08:30:30.113Z,23.09
2023-05-14T08:32:58.389Z,23.16
2023-05-14T08:35:25.959Z,23.20
2023-05-14T08:37:53.493Z,23.23
2023-05-14T08:40:21.450Z,23.25
2023-05-14T08:42:49.010Z,23.17
2023-05-14T08:45:16.340Z,23.05
2023-05-14T08:47:49.341Z,23.06
2023-05-14T08:50:17.277Z,23.09
2023-05-14T08:52:44.796Z,23.19
2023-05-14T08:55:13.459Z,23.21
2023-05-14T08:57:41.143Z,23.28
2023-05-14T09:00:11.924Z,23.37
2023-05-14T09:02:41.882Z,23.44
2023-05-14T09:05:09.907Z,23.52
2023-05-14T09:07:37.798Z,23.61
2023-05-14T09:10:08.952Z,23.69
2023-05-14T09:12:36.546Z,23.75
2023-05-14T09:15:04.875Z,23.81
2023-05-14T09:17:32.888Z,23.90
2023-05-14T09:20:00.667Z,24.00
2023-05-14T09:22:29.227Z,24.00
2023-05-14T09:25:04.861Z,24.01
2023-05-14T09:27:34.762Z,24.11
2023-05-14T09:30:12.374Z,24.16
2023-05-14T09:32:48.286Z,24.08
2023-05-14T09:35:20.642Z,24.08
2023-05-14T09:37:54.743Z,24.14
2023-05-14T09:40:24.124Z,24.17
2023-05-14T09:42:52.120Z,24.18
2023-05-14T09:45:19.557Z,24.27
2023-05-14T09:47:47.000Z,24.40
2023-05-14T09:50:14.527Z,24.53
2023-05-14T09:52:42.411Z,24.64
2023-05-14T09:55:10.253Z,24.73
2023-05-14T09:57:38.165Z,24.77
2023-05-14T10:00:06.819Z,24.82
2023-05-14T10:02:38.049Z,24.94
2023-05-14T10:05:06.501Z,25.06
2023-05-14T10:07:46.833Z,25.10
2023-05-14T10:10:16.674Z,25.18
2023-05-14T10:12:45.971Z,25.15
2023-05-14T10:15:22.561Z,25.11
2023-05-14T10:17:55.280Z,25.14
2023-05-14T10:20:23.315Z,25.21
2023-05-14T10:22:51.020Z,25.24
2023-05-14T10:25:18.813Z,25.25
2023-05-14T10:27:46.516Z,25.36
2023-05-14T10:30:14.569Z,25.44
2023-05-14T10:32:44.340Z,25.52
2023-05-14T10:35:20.908Z,25.51
2023-05-14T10:37:51.500Z,25.55
2023-05-14T10:40:19.478Z,25.63
2023-05-14T10:42:47.362Z,25.71
2023-05-14T10:45:15.465Z,25.69
2023-05-14T10:47:43.822Z,25.75
2023-05-14T10:50:12.569Z,25.79
2023-05-14T10:52:44.067Z,25.76
2023-05-14T10:55:15.537Z,25.83
2023-05-14T10:57:46.404Z,25.88
2023-05-14T11:00:14.722Z,25.96
2023-05-14T11:02:43.784Z,25.99
2023-05-14T11:05:16.028Z,25.96
2023-05-14T11:07:53.972Z,25.89
2023-05-14T11:10:22.249Z,25.78
2023-05-14T11:12:51.057Z,25.76
2023-05-14T11:15:19.367Z,25.53
2023-05-14T11:17:47.405Z,25.16
2023-05-14T11:20:15.091Z,24.88
2023-05-14T11:22:43.371Z,24.63
2023-05-14T11:25:11.454Z,24.19
2023-05-14T11:27:39.464Z,23.55
2023-05-14T11:30:14.203Z,23.13
2023-05-14T11:32:44.355Z,22.68
2023-05-14T11:35:12.186Z,22.42
2023-05-14T11:37:40.330Z,22.35
2023-05-14T11:40:12.622Z,22.37
2023-05-14T11:42:40.224Z,22.37
2023-05-14T11:45:12.006Z,22.40
2023-05-14T11:47:41.683Z,22.36
2023-05-14T11:50:09.938Z,22.30
2023-05-14T11:52:41.036Z,22.27
2023-05-14T11:55:12.862Z,22.22
2023-05-14T11:57:41.172Z,22.21
2023-05-14T12:00:11.208Z,22.25
2023-05-14T12:02:38.959Z,22.30
2023-05-14T12:05:07.517Z,22.33
2023-05-14T12:07:36.046Z,22.38
2023-05-14T12:10:04.019Z,22.43
2023-05-14T12:12:35.239Z,22.51
2023-05-14T12:15:02.775Z,22.60
2023-05-14T12:17:31.420Z,22.67
2023-05-14T12:19:59.022Z,22.79
2023-05-14T12:22:26.553Z,22.91
2023-05-14T12:24:57.962Z,23.06
2023-05-14T12:27:26.650Z,23.20
2023-05-14T12:30:19.999Z,23.31
2023-05-14T12:32:52.718Z,23.44
2023-05-14T12:35:21.614Z,23.52
2023-05-14T12:37:49.473Z,23.53
2023-05-14T12:40:17.260Z,23.53
2023-05-14T12:42:44.844Z,23.53
2023-05-14T12:45:12.380Z,23.51
2023-05-14T12:47:40.231Z,23.49
2023-05-14T12:50:08.065Z,23.47
2023-05-14T12:52:39.165Z,23.45
2023-05-14T12:55:08.908Z,23.46
2023-05-14T12:57:37.319Z,23.51
2023-05-14T13:00:08.614Z,23.57
2023-05-14T13:02:42.863Z,23.64
2023-05-14T13:05:11.421Z,23.59
2023-05-14T13:07:39.513Z,23.77
2023-05-14T13:10:08.326Z,23.91
2023-05-14T13:12:36.202Z,24.00
2023-05-14T13:15:04.024Z,24.10
2023-05-14T13:17:31.973Z,24.20
2023-05-14T13:19:59.572Z,24.24
2023-05-14T13:22:27.045Z,24.19
2023-05-14T13:24:54.521Z,24.11
2023-05-14T13:27:22.017Z,24.03
2023-05-14T13:29:49.513Z,23.95
2023-05-14T13:32:17.044Z,23.88
2023-05-14T13:34:44.590Z,23.84
2023-05-14T13:37:12.207Z,23.77
2023-05-14T13:39:41.143Z,23.72
2023-05-14T13:42:08.909Z,23.67
2023-05-14T13:44:36.445Z,23.66
2023-05-14T13:47:04.357Z,23.59
2023-05-14T13:49:31.911Z,23.59
2023-05-14T13:51:59.529Z,23.60
2023-05-14T13:54:27.320Z,23.69
2023-05-14T13:56:54.838Z,23.79
2023-05-14T13:59:23.731Z,23.88
2023-05-14T14:01:51.766Z,23.91
2023-05-14T14:04:20.059Z,23.84
2023-05-14T14:06:47.630Z,23.81
2023-05-14T14:09:15.196Z,23.86
2023-05-14T14:11:42.760Z,23.96
2023-05-14T14:14:10.421Z,24.06
2023-05-14T14:16:38.396Z,24.18
2023-05-14T14:19:06.842Z,24.30
2023-05-14T14:21:35.434Z,24.39
2023-05-14T14:24:02.992Z,24.43
2023-05-14T14:26:30.622Z,24.49
2023-05-14T14:28:58.752Z,24.54
2023-05-14T14:31:26.253Z,24.57
2023-05-14T14:33:53.794Z,24.60
2023-05-14T14:36:21.368Z,24.66
2023-05-14T14:38:49.001Z,24.72
2023-05-14T14:41:16.610Z,24.73
2023-05-14T14:43:44.177Z,24.67
2023-05-14T14:46:11.643Z,24.58
2023-05-14T14:48:41.442Z,24.40
2023-05-14T14:51:09.092Z,24.27
2023-05-14T14:53:37.182Z,24.19
2023-05-14T14:56:05.109Z,24.11
2023-05-14T14:58:32.914Z,24.03
2023-05-14T15:01:01.221Z,23.94
2023-05-14T15:03:29.423Z,23.87
2023-05-14T15:05:57.059Z,23.84
2023-05-14T15:08:26.559Z,23.77
2023-05-14T15:10:55.016Z,23.72
2023-05-14T15:13:22.519Z,23.63
2023-05-14T15:15:50.723Z,23.57
2023-05-14T15:18:18.336Z,23.49
2023-05-14T15:20:46.173Z,23.44
2023-05-14T15:23:13.763Z,23.40
2023-05-14T15:25:41.235Z,23.32
2023-05-14T15:28:08.993Z,23.28
2023-05-14T15:30:36.558Z,23.20
2023-05-14T15:33:04.223Z,23.16
2023-05-14T15:35:32.035Z,23.10
2023-05-14T15:37:59.879Z,23.03
2023-05-14T15:40:27.752Z,22.99
2023-05-14T15:42:55.967Z,22.94
2023-05-14T15:45:23.581Z,22.91
2023-05-14T15:47:51.272Z,22.85
2023-05-14T15:50:19.052Z,22.82
2023-05-14T15:52:46.672Z,22.76
2023-05-14T15:55:14.196Z,22.73
2023-05-14T15:57:41.794Z,22.67
2023-05-14T16:00:11.159Z,22.65
2023-05-14T16:02:39.379Z,22.62
2023-05-14T16:05:07.597Z,22.58
2023-05-14T16:07:36.475Z,22.54
2023-05-14T16:10:04.369Z,22.51
2023-05-14T16:12:32.330Z,22.45
2023-05-14T16:15:00.187Z,22.41
2023-05-14T16:17:28.227Z,22.36
2023-05-14T16:19:56.574Z,22.30
2023-05-14T16:22:24.226Z,22.24
2023-05-14T16:24:51.830Z,22.18
2023-05-14T16:27:19.361Z,22.15
2023-05-14T16:29:46.862Z,22.09
2023-05-14T16:32:14.334Z,22.04
2023-05-14T16:34:41.967Z,21.97
2023-05-14T16:37:10.784Z,21.92
2023-05-14T16:39:40.060Z,21.85
2023-05-14T16:42:07.687Z,21.81
2023-05-14T16:44:35.251Z,21.77
2023-05-14T16:47:02.824Z,21.73
2023-05-14T16:49:30.426Z,21.69
2023-05-14T16:51:58.297Z,21.63
2023-05-14T16:54:25.900Z,21.59
2023-05-14T16:56:53.421Z,21.54
2023-05-14T16:59:20.929Z,21.51
2023-05-14T17:01:48.633Z,21.47
2023-05-14T17:04:16.399Z,21.44
2023-05-14T17:06:44.148Z,21.38
2023-05-14T17:09:11.603Z,21.34
2023-05-14T17:11:39.089Z,21.27
2023-05-14T17:14:06.916Z,21.20
2023-05-14T17:16:34.528Z,21.15
2023-05-14T17:19:02.106Z,21.11
2023-05-14T17:21:29.748Z,21.07
2023-05-14T17:23:57.456Z,21.04
2023-05-14T17:26:24.977Z,21.00
2023-05-14T17:28:52.652Z,20.99
2023-05-14T17:31:21.833Z,20.96
2023-05-14T17:33:49.540Z,20.93
2023-05-14T17:36:17.138Z,20.87
2023-05-14T17:38:44.616Z,20.82
2023-05-14T17:41:12.402Z,20.75
2023-05-14T17:43:39.838Z,20.70
2023-05-14T17:46:07.590Z,20.66
2023-05-14T17:48:35.222Z,20.61
2023-05-14T17:51:02.669Z,20.56
2023-05-14T17:53:30.393Z,20.53
2023-05-14T17:55:58.024Z,20.48
2023-05-14T17:58:25.656Z,20.44
2023-05-14T18:00:53.569Z,20.40
2023-05-14T18:03:21.450Z,20.36
2023-05-14T18:05:49.315Z,20.32
2023-05-14T18:08:17.304Z,20.29
2023-05-14T18:10:44.735Z,20.27
2023-05-14T18:13:12.402Z,20.24
2023-05-14T18:15:40.031Z,20.19
2023-05-14T18:18:07.601Z,20.16
2023-05-14T18:20:35.642Z,20.13
2023-05-14T18:23:03.621Z,20.11
2023-05-14T18:25:31.141Z,20.08
2023-05-14T18:27:59.164Z,20.06
2023-05-14T18:30:27.309Z,20.03
2023-05-14T18:32:54.901Z,19.99
2023-05-14T18:35:22.586Z,19.95
2023-05-14T18:37:50.102Z,19.92
2023-05-14T18:40:18.889Z,19.90
2023-05-14T18:42:46.793Z,19.86
2023-05-14T18:45:14.595Z,19.84
2023-05-14T18:47:42.054Z,19.79
2023-05-14T18:50:09.767Z,19.76
2023-05-14T18:52:38.292Z,19.72
2023-05-14T18:55:06.123Z,19.69
2023-05-14T18:57:34.094Z,19.65
2023-05-14T19:00:05.236Z,19.64
2023-05-14T19:02:35.110Z,19.61
2023-05-14T19:05:05.093Z,19.60
2023-05-14T19:07:33.123Z,19.58
2023-05-14T19:10:00.725Z,19.56
2023-05-14T19:12:28.586Z,19.54
2023-05-14T19:14:56.140Z,19.47
2023-05-14T19:17:24.658Z,19.44
2023-05-14T19:19:52.191Z,19.38
2023-05-14T19:22:25.762Z,19.35
2023-05-14T19:24:55.005Z,19.31
2023-05-14T19:27:24.181Z,19.26
2023-05-14T19:29:51.736Z,19.23
2023-05-14T19:32:19.554Z,19.21
2023-05-14T19:34:48.425Z,19.19
2023-05-14T19:37:17.022Z,19.15
2023-05-14T19:39:47.030Z,19.13
2023-05-14T19:42:14.502Z,19.08
2023-05-14T19:44:42.369Z,19.02
2023-05-14T19:47:10.029Z,18.93
2023-05-14T19:49:37.800Z,18.82
2023-05-14T19:52:05.821Z,18.75
2023-05-14T19:54:33.835Z,18.67
2023-05-14T19:57:01.568Z,18.60
2023-05-14T19:59:29.937Z,18.54
2023-05-14T20:01:57.652Z,18.49
2023-05-14T20:04:26.127Z,18.46
2023-05-14T20:06:53.715Z,18.42
2023-05-14T20:09:21.259Z,18.38
2023-05-14T20:11:48.762Z,18.34
2023-05-14T20:14:16.268Z,18.29
2023-05-14T20:16:43.848Z,18.24
2023-05-14T20:19:12.129Z,18.21
2023-05-14T20:21:39.774Z,18.18
2023-05-14T20:24:07.480Z,18.15
2023-05-14T20:26:35.140Z,18.12
2023-05-14T20:29:02.701Z,18.09
2023-05-14T20:31:31.134Z,18.04
2023-05-14T20:33:58.762Z,17.96
2023-05-14T20:36:26.199Z,17.91
2023-05-14T20:38:53.730Z,17.85
2023-05-14T20:41:22.295Z,17.78
2023-05-14T20:43:49.782Z,17.72
2023-05-14T20:46:18.839Z,17.66
2023-05-14T20:48:47.965Z,17.62
2023-05-14T20:51:15.755Z,17.57
2023-05-14T20:53:43.485Z,17.55
2023-05-14T20:56:11.029Z,17.52
2023-05-14T20:58:39.064Z,17.50
2023-05-14T21:01:08.179Z,17.47
2023-05-14T21:03:37.357Z,17.45
2023-05-14T21:06:05.215Z,17.42
2023-05-14T21:08:34.985Z,17.41
2023-05-14T21:11:02.596Z,17.42
2023-05-14T21:13:30.765Z,17.41
2023-05-14T21:16:00.264Z,17.44
2023-05-14T21:18:30.829Z,17.47
2023-05-14T21:20:58.848Z,17.48
2023-05-14T21:23:26.541Z,17.51
2023-05-14T21:25:55.009Z,17.53
2023-05-14T21:28:22.715Z,17.54
2023-05-14T21:30:50.674Z,17.57
2023-05-14T21:33:18.105Z,17.62
2023-05-14T21:35:45.653Z,17.67
2023-05-14T21:38:13.235Z,17.72
2023-05-14T21:40:40.820Z,17.79
2023-05-14T21:43:08.516Z,17.85
2023-05-14T21:45:36.102Z,17.91
2023-05-14T21:48:03.841Z,17.95
2023-05-14T21:50:31.566Z,17.98
2023-05-14T21:52:59.110Z,17.99
2023-05-14T21:55:27.733Z,17.99
2023-05-14T21:57:55.910Z,18.00
2023-05-14T22:00:24.271Z,18.01
2023-05-14T22:02:54.993Z,17.99
2023-05-14T22:05:22.602Z,17.96
2023-05-14T22:07:50.297Z,17.95
2023-05-14T22:10:18.106Z,17.96
2023-05-14T22:12:46.109Z,17.97
2023-05-14T22:15:13.577Z,17.98
2023-05-14T22:17:41.820Z,18.00
2023-05-14T22:20:12.077Z,18.04
2023-05-14T22:22:39.903Z,18.04
2023-05-14T22:25:07.996Z,18.07
2023-05-14T22:27:36.510Z,18.07
2023-05-14T22:30:04.925Z,18.08
2023-05-14T22:32:33.379Z,18.05
2023-05-14T22:35:01.826Z,18.03
2023-05-14T22:37:29.347Z,18.02
2023-05-14T22:39:56.910Z,17.99
2023-05-14T22:42:24.581Z,17.92
2023-05-14T22:44:52.038Z,17.86
2023-05-14T22:47:19.658Z,17.79
2023-05-14T22:49:47.143Z,17.74
2023-05-14T22:52:14.542Z,17.68
2023-05-14T22:54:42.530Z,17.61
2023-05-14T22:57:10.010Z,17.54
2023-05-14T22:59:39.478Z,17.51
2023-05-14T23:02:07.222Z,17.48
2023-05-14T23:04:35.339Z,17.46
2023-05-14T23:07:02.763Z,17.42
2023-05-14T23:09:30.381Z,17.40
2023-05-14T23:11:57.879Z,17.40
2023-05-14T23:14:25.767Z,17.40
2023-05-14T23:16:53.285Z,17.43
2023-05-14T23:19:21.832Z,17.47
2023-05-14T23:21:49.346Z,17.48
2023-05-14T23:24:16.947Z,17.50
2023-05-14T23:26:44.428Z,17.50
2023-05-14T23:29:11.761Z,17.49
2023-05-14T23:31:41.083Z,17.47
2023-05-14T23:34:08.652Z,17.43
2023-05-14T23:36:36.165Z,17.36
2023-05-14T23:39:03.815Z,17.30
2023-05-14T23:41:31.853Z,17.25
2023-05-14T23:43:59.510Z,17.23
2023-05-14T23:46:27.275Z,17.20
2023-05-14T23:48:57.089Z,17.15
2023-05-14T23:51:24.744Z,17.10
2023-05-14T23:53:56.385Z,17.05
2023-05-14T23:56:24.882Z,17.01
2023-05-14T23:58:52.645Z,16.98
